首页
METAR-TAF:

METAR-TAF

机场 :

埃因霍温, 荷兰

纬度: 51-27N, 经度: 005-25E, 海拔: 23米

当前天气观测

该预报发布于12分钟前的02:25 UTC
风速3节,风向东南,在东转东南之间变化
温度 5°C
湿度 81%
气压 1011 hPa
能见度10公里或以上
阴天层高于3400英尺

METAR: EHEH 170225Z AUTO 14003KT 120V180 9999 OVC034 05/02 Q1011 BLU

时间: 03:37 (02:37 UTC)

预报

该预报发布于5小时和58分钟前的20:39 UTC
预报有效从16日的 21点(UTC)到 18日的 03点(UTC)
风速5节,风向南转南东
能见度10公里或以上
散云层高于2500英尺
多云层高于4000英尺
成为
从 17日的 00点(UTC)到 17日的 03点(UTC)
能見度: 4000
轻雾
几率 40%
从 17日的 02点(UTC)到 17日的 06点(UTC)
能見度: 1500
轻雾, 浅雾
成为
从 17日的 06点(UTC)到 17日的 09点(UTC)
风速6节,风向东转东北
能见度10公里或以上
成为
从 17日的 12点(UTC)到 17日的 15点(UTC)
风速8节,风向
成为
从 17日的 19点(UTC)到 17日的 22点(UTC)
散云层高于1500英尺
多云层高于2000英尺
短暂存在
从 17日的 21点(UTC)到 18日的 06点(UTC)
风速10节,风向西北,有时为20节阵风
能見度: 4500
散云层高于1200英尺
多云层高于1500英尺
小雨, 毛毛雨
几率 30% :
短暂存在
从 18日的 03点(UTC)到 18日的 06点(UTC)
散云层高于500英尺
多云层高于1000英尺

TAF: EHEH 162039Z 1621/1803 16005KT 9999 SCT025 BKN040 BECMG 1700/1703 4000 BR PROB40 1702/1706 1500 BR MIFG BECMG 1706/1709 06006KT 9999 NSW BECMG 1712/1715 35008KT BECMG 1719/1722 SCT015 BKN020 TEMPO 1721/1806 32010G20KT 4500 -RADZ SCT012 BKN015 PROB30 TEMPO 1803/1806 SCT005 BKN010

超过4000个机场的气象观测和天气预报(METAR&TAF报告)。

可查询的气象台以黄色和红色小点在地图上表示。

将鼠标移到小点上方,可查看气象台名称。

然后点击查看天气观测和预报。

如需切换地图:点击带黑十字的绿色按钮放大地图;点击带横线的绿色按钮缩小地图;或者点击绿色箭头查看邻近地区的地图。


METAR-TAF: